Time;durP1;ratioP1;P1;durP2;ratioP2;P2;SDS_P1;SDS_P2;PMS_P1;PMS_P2;Temp;Humidity;BMP_temperature;BMP_pressure;BME280_temperature;BME280_humidity;BME280_pressure;Samples;Min_cycle;Max_cycle;Signal;HPM_P1;HPM_P2
2022/01/27 00:05:53;;;;;;;26.23;17.30;;;;;;;0.90;93.43;101471.28;4988639;28;20431;-60
2022/01/27 00:08:26;;;;;;;30.50;18.97;;;;;;;0.98;93.16;101468.81;4972352;28;20193;-60
2022/01/27 00:13:20;;;;;;;27.17;17.73;;;;;;;1.06;92.73;101467.16;4988304;28;20198;-60
2022/01/27 00:15:48;;;;;;;28.13;18.03;;;;;;;1.12;92.78;101464.69;4978374;28;20328;-60
2022/01/27 00:18:18;;;;;;;32.63;19.87;;;;;;;1.16;92.53;101457.94;4985179;28;20598;-60
2022/01/27 00:20:47;;;;;;;32.20;20.57;;;;;;;1.19;91.76;101452.03;4959383;28;20306;-61
2022/01/27 00:23:14;;;;;;;26.97;17.60;;;;;;;1.21;91.67;101452.91;4968782;28;20180;-61
2022/01/27 00:25:39;;;;;;;25.23;17.07;;;;;;;1.13;91.68;101446.09;4969189;28;20196;-61
2022/01/27 00:28:05;;;;;;;26.90;18.13;;;;;;;0.98;91.87;101446.00;4968801;28;20177;-60
2022/01/27 00:30:35;;;;;;;25.17;17.03;;;;;;;1.02;92.93;101450.25;4939186;28;20235;-60
2022/01/27 00:33:01;;;;;;;26.53;17.30;;;;;;;0.99;93.60;101444.31;4968575;28;20246;-59
2022/01/27 00:35:26;;;;;;;26.70;18.33;;;;;;;0.88;93.60;101446.78;4968708;28;20208;-60
2022/01/27 00:37:51;;;;;;;25.13;17.00;;;;;;;0.91;93.36;101439.22;4969025;28;20216;-60
2022/01/27 00:40:17;;;;;;;26.50;17.30;;;;;;;0.94;93.62;101434.16;4962311;28;20187;-60
2022/01/27 00:42:42;;;;;;;24.83;16.83;;;;;;;0.84;93.29;101424.78;5023303;28;20187;-61
2022/01/27 00:45:09;;;;;;;23.37;16.70;;;;;;;0.93;93.67;101425.72;5009854;28;20670;-61
2022/01/27 00:47:34;;;;;;;21.87;16.17;;;;;;;0.94;93.88;101427.41;5014419;28;20198;-60
2022/01/27 00:50:00;;;;;;;25.37;16.70;;;;;;;0.98;93.67;101419.81;5012493;28;20652;-60
2022/01/27 00:52:33;;;;;;;24.60;17.43;;;;;;;0.90;93.82;101417.22;4980396;28;20231;-62
2022/01/27 00:54:59;;;;;;;27.13;17.67;;;;;;;1.05;93.28;101412.25;4983149;28;20549;-61
2022/01/27 01:00:10;;;;;;;27.50;18.07;;;;;;;0.85;93.98;101411.28;4984932;28;20245;-60
2022/01/27 01:02:52;;;;;;;30.13;17.93;;;;;;;0.93;94.14;101404.56;5009588;28;20175;-60
2022/01/27 01:05:48;;;;;;;25.83;18.47;;;;;;;0.83;94.34;101405.34;5003130;28;20282;-60
2022/01/27 01:16:16;;;;;;;24.70;16.13;;;;;;;0.75;92.89;101408.69;4994202;28;20643;-60
2022/01/27 01:18:55;;;;;;;25.77;16.97;;;;;;;1.02;93.21;101414.78;4993976;28;20219;-60
2022/01/27 01:34:30;;;;;;;22.80;16.10;;;;;;;0.86;93.21;101416.38;5012964;28;20181;-61
2022/01/27 01:37:04;;;;;;;23.83;17.60;;;;;;;1.01;92.56;101409.72;5013225;28;20271;-60
2022/01/27 01:39:33;;;;;;;22.83;16.73;;;;;;;1.16;92.21;101419.09;5013432;28;20201;-61
2022/01/27 01:42:02;;;;;;;23.40;16.17;;;;;;;1.19;91.21;101414.88;5002228;28;20234;-60
2022/01/27 01:44:28;;;;;;;23.93;16.83;;;;;;;1.11;91.65;101414.81;4997797;28;20262;-62
2022/01/27 01:46:54;;;;;;;22.87;16.30;;;;;;;1.23;90.93;101413.22;4993568;28;20286;-60
2022/01/27 01:49:22;;;;;;;23.97;16.57;;;;;;;1.12;91.33;101420.75;4993225;28;20176;-60
2022/01/27 01:51:49;;;;;;;24.33;17.07;;;;;;;1.28;91.35;101422.53;4996688;28;20226;-60
2022/01/27 01:54:15;;;;;;;24.27;16.53;;;;;;;0.95;91.53;101402.91;4994425;28;20274;-60
2022/01/27 01:56:42;;;;;;;28.67;17.37;;;;;;;0.96;92.15;101397.84;4992360;28;20215;-60
2022/01/27 01:59:07;;;;;;;27.47;17.77;;;;;;;0.89;93.05;101390.19;4975238;28;20259;-60
2022/01/27 02:01:34;;;;;;;23.67;16.87;;;;;;;1.11;92.78;101388.66;4979761;28;20612;-60
2022/01/27 02:04:04;;;;;;;25.83;16.23;;;;;;;1.21;92.34;101384.47;4980790;28;20837;-60
2022/01/27 02:06:41;;;;;;;27.93;17.47;;;;;;;1.05;92.16;101393.69;4973654;28;20259;-60
2022/01/27 02:09:24;;;;;;;23.00;15.50;;;;;;;1.27;92.00;101392.09;4973953;28;20203;-60
2022/01/27 02:20:05;;;;;;;25.23;15.67;;;;;;;0.85;91.37;101384.25;4991877;28;20186;-61
2022/01/27 02:22:30;;;;;;;21.53;16.13;;;;;;;0.90;91.82;101375.00;5007001;28;20198;-60
2022/01/27 02:24:56;;;;;;;22.97;15.87;;;;;;;0.84;92.41;101372.44;4992568;28;20167;-60
2022/01/27 02:27:22;;;;;;;23.93;17.60;;;;;;;0.73;92.47;101363.91;4999540;28;20178;-60
2022/01/27 02:29:47;;;;;;;25.93;17.30;;;;;;;0.82;92.60;101364.00;5027310;28;20274;-60
2022/01/27 02:32:14;;;;;;;24.63;17.20;;;;;;;0.88;93.05;101348.84;5008986;28;20268;-60
2022/01/27 02:34:41;;;;;;;24.20;17.37;;;;;;;1.00;92.65;101342.97;5011938;28;20603;-61
2022/01/27 02:37:07;;;;;;;24.83;17.63;;;;;;;0.97;92.49;101345.50;5011983;28;20194;-60
2022/01/27 02:39:32;;;;;;;26.90;18.00;;;;;;;0.88;92.55;101351.38;5011882;28;20209;-60
2022/01/27 02:42:24;;;;;;;26.17;17.83;;;;;;;0.77;92.82;101341.16;5016667;28;20225;-60
2022/01/27 02:44:53;;;;;;;24.97;17.47;;;;;;;0.85;92.47;101337.84;4996352;28;20172;-60
2022/01/27 02:47:18;;;;;;;25.37;17.53;;;;;;;0.76;92.61;101342.00;4990897;28;20182;-60
2022/01/27 02:49:44;;;;;;;25.73;17.33;;;;;;;0.90;92.29;101342.06;4992902;28;20176;-60
2022/01/27 02:52:10;;;;;;;31.50;20.23;;;;;;;0.85;93.02;101327.69;5016944;28;20222;-60
2022/01/27 02:54:36;;;;;;;27.70;18.70;;;;;;;0.76;94.06;101326.78;5011322;28;20289;-60
2022/01/27 02:57:01;;;;;;;28.67;19.77;;;;;;;0.79;94.50;101336.97;5011703;28;20226;-60
2022/01/27 02:59:27;;;;;;;28.27;18.80;;;;;;;0.87;94.68;101342.06;5011609;28;20226;-60
2022/01/27 03:01:53;;;;;;;27.93;20.63;;;;;;;0.98;94.47;101339.59;4999612;28;20231;-60
2022/01/27 03:04:20;;;;;;;28.90;19.87;;;;;;;0.84;94.67;101339.50;4986615;28;20369;-60
2022/01/27 03:06:46;;;;;;;29.63;20.20;;;;;;;0.92;94.34;101337.03;4991628;28;20199;-60
2022/01/27 03:09:13;;;;;;;32.53;21.00;;;;;;;1.05;94.12;101326.09;4991255;28;20254;-60
2022/01/27 03:11:57;;;;;;;26.47;18.13;;;;;;;1.05;92.99;101327.78;4993608;28;20269;-60
2022/01/27 03:14:23;;;;;;;28.63;18.60;;;;;;;0.79;93.28;101326.81;4973022;28;20180;-60
2022/01/27 03:16:53;;;;;;;26.60;17.40;;;;;;;0.80;93.98;101327.66;4981120;28;20203;-60
2022/01/27 03:19:18;;;;;;;27.23;18.93;;;;;;;0.95;93.88;101320.13;4991417;28;20199;-60
2022/01/27 03:21:43;;;;;;;29.53;19.43;;;;;;;1.01;93.60;101314.25;4994209;28;20591;-60
2022/01/27 03:24:09;;;;;;;28.70;19.50;;;;;;;0.70;94.70;101308.19;4990430;28;20207;-61
2022/01/27 03:26:34;;;;;;;28.37;18.57;;;;;;;0.80;94.62;101307.41;4991213;28;20278;-59
2022/01/27 03:29:00;;;;;;;26.10;18.03;;;;;;;0.87;94.10;101300.66;4991363;28;20194;-60
2022/01/27 03:31:26;;;;;;;27.73;19.63;;;;;;;0.80;94.52;101298.09;4985192;28;20227;-59
2022/01/27 03:33:51;;;;;;;27.20;18.20;;;;;;;0.85;94.66;101300.66;4982672;28;20728;-59
2022/01/27 03:36:17;;;;;;;28.50;19.03;;;;;;;0.92;94.61;101301.56;4991240;28;20286;-60
2022/01/27 03:38:42;;;;;;;28.17;18.43;;;;;;;0.89;93.96;101304.91;4991232;28;20199;-60
2022/01/27 03:41:09;;;;;;;24.70;17.80;;;;;;;1.04;93.92;101311.75;4989381;28;20707;-60
2022/01/27 03:43:37;;;;;;;24.67;17.83;;;;;;;0.84;93.53;101321.75;4981918;28;20178;-60
2022/01/27 03:46:03;;;;;;;25.40;17.80;;;;;;;0.87;93.67;101313.34;4991129;28;20195;-60
2022/01/27 03:48:28;;;;;;;24.77;16.93;;;;;;;0.88;93.08;101303.22;4991454;28;20553;-60
2022/01/27 03:50:54;;;;;;;25.47;16.23;;;;;;;0.86;92.69;101304.06;4987790;28;20269;-60
2022/01/27 03:53:20;;;;;;;27.13;17.93;;;;;;;0.75;93.54;101304.00;4999357;28;20208;-61
2022/01/27 03:55:45;;;;;;;24.33;16.03;;;;;;;0.82;92.92;101303.19;4991027;28;20691;-61
2022/01/27 03:58:11;;;;;;;26.10;17.43;;;;;;;0.63;93.25;101294.63;4991015;28;20222;-60
2022/01/27 04:00:37;;;;;;;23.33;16.40;;;;;;;0.63;93.97;101302.22;4971073;28;20308;-60
2022/01/27 04:03:07;;;;;;;26.60;17.50;;;;;;;0.51;94.43;101305.56;4995690;28;20179;-60
2022/01/27 04:05:37;;;;;;;24.00;16.63;;;;;;;0.67;94.71;101308.16;4991069;28;20226;-60
2022/01/27 04:08:04;;;;;;;24.77;16.97;;;;;;;0.65;94.39;101310.69;4992615;28;20838;-60
2022/01/27 04:10:29;;;;;;;25.83;17.70;;;;;;;0.62;95.02;101314.06;4994441;28;20226;-59
2022/01/27 04:12:55;;;;;;;24.73;17.00;;;;;;;0.76;94.37;101300.63;5002209;28;20679;-60
2022/01/27 04:15:20;;;;;;;30.53;18.63;;;;;;;0.73;93.92;101304.00;4983234;28;20298;-60
2022/01/27 04:17:45;;;;;;;27.60;19.40;;;;;;;0.98;93.94;101304.13;5005739;28;20171;-60
2022/01/27 04:20:11;;;;;;;26.93;17.47;;;;;;;0.85;93.13;101312.50;5001797;28;20195;-59
2022/01/27 04:22:37;;;;;;;26.67;18.17;;;;;;;0.83;93.15;101312.47;5039646;28;20202;-60
2022/01/27 04:25:02;;;;;;;28.87;18.60;;;;;;;0.88;93.63;101320.97;5010096;28;20211;-60
2022/01/27 04:27:32;;;;;;;27.70;18.83;;;;;;;1.02;93.29;101323.56;5010202;28;20316;-60
2022/01/27 04:29:57;;;;;;;27.87;19.63;;;;;;;0.93;92.50;101324.38;5010245;28;20198;-60
2022/01/27 04:32:29;;;;;;;27.03;18.27;;;;;;;0.74;93.55;101315.78;5011645;28;20596;-60
2022/01/27 04:35:00;;;;;;;27.27;18.50;;;;;;;0.87;93.79;101316.72;5008352;28;20555;-60
2022/01/27 04:37:26;;;;;;;25.47;17.90;;;;;;;0.90;93.32;101310.81;5010221;28;20185;-61
2022/01/27 04:40:01;;;;;;;29.77;19.63;;;;;;;0.80;93.19;101302.34;4993380;28;20199;-60
2022/01/27 04:43:17;;;;;;;32.70;20.20;;;;;;;0.80;93.40;101293.03;4979356;28;20300;-60
2022/01/27 04:45:17;;;;;;;28.90;19.23;;;;;;;0.67;93.80;101288.78;5008521;28;20580;-60
2022/01/27 04:47:47;;;;;;;30.87;19.90;;;;;;;0.75;94.25;101292.16;5010727;28;20189;-59
2022/01/27 04:50:12;;;;;;;29.73;19.17;;;;;;;0.59;93.91;101290.41;5002995;28;20190;-60
2022/01/27 04:52:42;;;;;;;28.50;18.47;;;;;;;0.82;94.39;101288.00;5026018;28;20190;-59
2022/01/27 04:55:11;;;;;;;30.40;18.67;;;;;;;0.80;93.88;101282.06;5011109;28;20185;-60
2022/01/27 04:57:39;;;;;;;29.63;19.97;;;;;;;0.74;94.02;101287.09;5012064;28;20179;-60
2022/01/27 05:00:07;;;;;;;27.70;19.23;;;;;;;0.80;93.96;101277.00;5004955;28;20185;-60
2022/01/27 05:02:47;;;;;;;28.23;17.50;;;;;;;0.69;94.37;101279.47;4985017;28;20245;-61
2022/01/27 05:05:12;;;;;;;27.63;19.03;;;;;;;0.72;94.59;101276.09;5009804;28;20175;-59
2022/01/27 05:07:38;;;;;;;30.53;17.87;;;;;;;0.58;94.57;101266.78;5010130;28;20242;-61
2022/01/27 05:10:11;;;;;;;28.00;18.50;;;;;;;0.60;95.01;101276.91;5000323;28;20547;-60
2022/01/27 05:12:43;;;;;;;27.93;18.27;;;;;;;0.75;94.42;101282.03;4993608;28;20190;-60
2022/01/27 05:15:09;;;;;;;26.33;17.37;;;;;;;0.75;94.43;101283.72;5009620;28;20543;-60
2022/01/27 05:17:35;;;;;;;24.10;16.00;;;;;;;0.75;94.06;101288.81;5009819;28;20265;-60
2022/01/27 05:20:00;;;;;;;26.30;17.03;;;;;;;0.61;94.09;101298.88;4992095;28;20188;-60
2022/01/27 05:22:25;;;;;;;27.77;17.57;;;;;;;0.66;94.73;101292.13;4966223;28;20233;-60
2022/01/27 05:24:50;;;;;;;29.10;17.13;;;;;;;0.74;94.77;101290.47;5005820;28;20179;-60
2022/01/27 05:27:16;;;;;;;25.43;15.73;;;;;;;0.79;94.45;101298.09;5004984;28;20281;-60
2022/01/27 05:29:42;;;;;;;21.37;14.73;;;;;;;0.78;94.06;101287.13;5009807;28;20183;-62
2022/01/27 05:32:09;;;;;;;24.57;16.03;;;;;;;0.72;94.41;101274.44;4999931;28;20223;-60
2022/01/27 05:34:34;;;;;;;26.73;14.80;;;;;;;0.69;94.73;101274.41;5011686;28;20742;-60
2022/01/27 05:37:00;;;;;;;25.40;15.73;;;;;;;0.79;94.37;101276.16;5013208;28;20201;-60
2022/01/27 05:39:25;;;;;;;23.43;14.70;;;;;;;0.69;94.08;101281.16;5000186;28;20199;-60
2022/01/27 05:41:50;;;;;;;25.93;14.67;;;;;;;0.67;94.58;101278.63;4982065;28;20261;-60
2022/01/27 05:44:15;;;;;;;23.97;15.60;;;;;;;0.59;95.02;101286.16;4993093;28;20175;-60
2022/01/27 05:46:41;;;;;;;25.03;14.97;;;;;;;0.61;95.35;101288.72;4993266;28;20195;-60
2022/01/27 05:49:06;;;;;;;22.83;15.23;;;;;;;0.50;95.99;101281.06;4993331;28;20636;-60
2022/01/27 05:51:31;;;;;;;23.43;15.43;;;;;;;0.57;95.69;101280.28;4994605;28;20265;-60
2022/01/27 05:53:57;;;;;;;20.70;13.63;;;;;;;0.74;95.47;101285.41;5012263;28;20189;-60
2022/01/27 05:56:22;;;;;;;20.43;12.93;;;;;;;0.72;95.20;101286.25;5012954;28;20209;-60
2022/01/27 05:58:47;;;;;;;21.97;14.10;;;;;;;0.64;94.82;101291.25;5012783;28;20222;-61
2022/01/27 06:01:13;;;;;;;25.17;14.77;;;;;;;0.61;95.15;101284.50;5002033;28;20683;-61
2022/01/27 06:03:39;;;;;;;23.20;14.67;;;;;;;0.69;94.85;101284.53;5012024;28;20616;-60
2022/01/27 06:06:04;;;;;;;23.00;13.47;;;;;;;0.67;95.72;101275.25;5012785;28;20214;-60
2022/01/27 06:08:30;;;;;;;22.17;14.13;;;;;;;0.67;95.79;101283.69;5012608;28;20179;-59
2022/01/27 06:10:57;;;;;;;23.57;14.87;;;;;;;0.80;95.38;101282.91;5001931;28;20226;-60
2022/01/27 06:13:23;;;;;;;24.47;14.97;;;;;;;0.72;95.04;101273.56;5011629;28;20171;-61
2022/01/27 06:15:48;;;;;;;23.03;14.47;;;;;;;0.87;94.64;101280.41;5012912;28;20664;-60
2022/01/27 06:18:13;;;;;;;22.80;14.40;;;;;;;0.92;94.51;101279.59;5012652;28;20205;-60
2022/01/27 06:20:40;;;;;;;24.27;13.80;;;;;;;1.17;93.83;101279.69;5001987;28;20237;-60
2022/01/27 06:23:05;;;;;;;21.73;14.03;;;;;;;1.24;93.21;101278.88;5011232;28;20756;-60
2022/01/27 06:25:31;;;;;;;25.47;14.93;;;;;;;1.24;93.01;101281.41;5023624;28;20206;-61
2022/01/27 06:27:57;;;;;;;23.93;14.47;;;;;;;1.14;93.56;101277.13;5031550;28;20250;-61
2022/01/27 06:30:23;;;;;;;21.67;14.47;;;;;;;1.25;93.69;101272.97;5013221;28;20223;-61
2022/01/27 06:32:49;;;;;;;23.73;14.30;;;;;;;1.32;93.80;101275.50;5022615;28;20179;-61
2022/01/27 06:35:15;;;;;;;23.83;15.27;;;;;;;1.22;93.87;101262.81;5026812;28;20233;-60
2022/01/27 06:37:42;;;;;;;22.23;14.27;;;;;;;1.27;93.62;101265.34;5023485;28;20186;-60
2022/01/27 06:40:10;;;;;;;23.83;13.93;;;;;;;1.22;93.75;101254.38;5002962;28;20652;-61
2022/01/27 06:42:36;;;;;;;25.43;15.70;;;;;;;1.32;93.93;101257.78;5010346;28;20187;-61
2022/01/27 06:45:02;;;;;;;25.93;15.27;;;;;;;1.11;93.83;101262.75;5010933;28;20710;-61
2022/01/27 06:47:28;;;;;;;21.37;13.83;;;;;;;1.24;94.52;101251.00;5011866;28;20626;-60
2022/01/27 06:49:53;;;;;;;22.93;13.47;;;;;;;1.21;94.97;101256.03;5012137;28;20179;-61
2022/01/27 06:52:20;;;;;;;25.40;14.70;;;;;;;1.08;94.79;101250.09;4996043;28;20329;-60
2022/01/27 06:54:48;;;;;;;21.60;14.63;;;;;;;1.22;94.71;101254.38;4992751;28;20743;-61
2022/01/27 06:57:14;;;;;;;19.90;13.03;;;;;;;1.19;94.34;101242.53;4993603;28;20235;-61
2022/01/27 06:59:39;;;;;;;25.70;15.87;;;;;;;1.11;94.32;101249.25;4992260;28;20249;-61
2022/01/27 07:02:04;;;;;;;21.37;13.87;;;;;;;1.12;94.81;101243.34;4998525;28;20254;-61
2022/01/27 07:04:30;;;;;;;24.83;14.77;;;;;;;1.03;95.06;101244.16;4994943;28;20790;-60
2022/01/27 07:06:55;;;;;;;20.83;14.10;;;;;;;1.12;95.28;101244.19;4999889;28;20200;-61
2022/01/27 07:09:20;;;;;;;19.23;13.40;;;;;;;0.96;95.49;101244.97;4992514;28;20180;-61
2022/01/27 07:11:45;;;;;;;18.40;12.67;;;;;;;0.90;95.77;101237.34;4996625;28;20237;-60
2022/01/27 07:14:12;;;;;;;20.03;12.50;;;;;;;0.82;96.52;101234.81;4995752;28;20553;-61
2022/01/27 07:16:38;;;;;;;20.27;13.03;;;;;;;0.80;96.96;101239.84;5001262;28;20648;-61
2022/01/27 07:19:03;;;;;;;21.77;13.30;;;;;;;0.65;97.45;101237.25;4994017;28;20218;-61
2022/01/27 07:21:28;;;;;;;20.73;13.27;;;;;;;0.66;98.43;101233.88;4997367;28;20246;-61
2022/01/27 07:23:53;;;;;;;18.00;12.63;;;;;;;0.59;99.07;101224.56;5018079;28;20560;-61
2022/01/27 07:26:24;;;;;;;22.47;13.40;;;;;;;0.63;99.57;101223.72;5017964;28;20742;-60
2022/01/27 07:28:50;;;;;;;19.07;12.57;;;;;;;0.58;99.97;101218.66;5011849;28;20186;-61
2022/01/27 07:31:16;;;;;;;18.97;12.67;;;;;;;0.49;100.00;101205.94;5007909;28;20309;-61
2022/01/27 07:33:41;;;;;;;18.40;12.70;;;;;;;0.58;100.00;101200.94;5002898;28;20273;-61
2022/01/27 07:36:06;;;;;;;24.00;14.77;;;;;;;0.60;100.00;101188.28;4993482;28;20259;-61
2022/01/27 07:38:32;;;;;;;24.43;14.70;;;;;;;0.58;100.00;101184.88;4997707;28;20715;-61
2022/01/27 07:40:57;;;;;;;22.90;14.13;;;;;;;0.52;100.00;101185.72;4986699;28;20226;-61
2022/01/27 07:43:22;;;;;;;21.10;14.67;;;;;;;0.65;100.00;101179.00;4992537;28;20210;-60
2022/01/27 07:45:48;;;;;;;22.37;14.13;;;;;;;0.58;100.00;101175.63;5008372;28;20559;-61
2022/01/27 07:48:13;;;;;;;21.00;13.40;;;;;;;0.71;100.00;101171.44;5009977;28;20190;-60
2022/01/27 07:50:39;;;;;;;24.73;14.30;;;;;;;0.60;100.00;101168.03;5003913;28;20222;-60
2022/01/27 07:53:04;;;;;;;21.47;13.73;;;;;;;0.70;100.00;101168.91;5003852;28;20678;-61
2022/01/27 07:55:29;;;;;;;23.53;14.30;;;;;;;0.79;100.00;101164.72;4998772;28;20226;-60
2022/01/27 07:57:55;;;;;;;23.27;14.53;;;;;;;0.58;100.00;101162.97;4991114;28;20218;-62
2022/01/27 08:00:20;;;;;;;21.17;13.87;;;;;;;0.62;100.00;101158.72;4973335;28;20200;-62
2022/01/27 08:02:46;;;;;;;21.70;12.87;;;;;;;0.60;100.00;101161.25;5010201;28;20182;-59
2022/01/27 08:05:12;;;;;;;18.77;13.20;;;;;;;0.75;100.00;101163.00;4995837;28;20226;-60
2022/01/27 08:07:38;;;;;;;22.60;14.07;;;;;;;0.86;100.00;101167.28;4990946;28;20626;-61
2022/01/27 08:10:04;;;;;;;20.93;13.40;;;;;;;0.88;100.00;101165.56;4983839;28;20268;-61
2022/01/27 08:12:29;;;;;;;21.60;13.43;;;;;;;0.98;100.00;101164.75;5009113;28;20214;-62
2022/01/27 08:14:55;;;;;;;18.80;13.13;;;;;;;1.08;100.00;101163.94;5010337;28;20175;-60
2022/01/27 08:17:20;;;;;;;21.50;14.60;;;;;;;1.20;99.74;101152.94;5015616;28;20241;-62
2022/01/27 08:19:45;;;;;;;22.57;13.97;;;;;;;1.16;99.32;101160.56;5010350;28;20203;-61
2022/01/27 08:22:10;;;;;;;20.10;13.33;;;;;;;1.16;99.57;101161.41;4999559;28;20230;-60
2022/01/27 08:24:37;;;;;;;20.23;13.23;;;;;;;1.19;99.50;101163.09;5010220;28;20666;-61
2022/01/27 08:27:05;;;;;;;19.03;13.13;;;;;;;1.28;99.49;101158.06;5009895;28;20203;-60
2022/01/27 08:29:44;;;;;;;22.97;12.93;;;;;;;1.33;98.99;101152.97;5010857;28;20183;-60
2022/01/27 08:32:16;;;;;;;19.33;13.03;;;;;;;1.07;99.65;101153.81;4985493;28;20226;-60
2022/01/27 08:34:41;;;;;;;20.93;14.10;;;;;;;1.10;100.00;101158.84;4995933;28;20187;-60
2022/01/27 08:37:17;;;;;;;22.53;12.97;;;;;;;1.19;100.00;101158.88;5016961;28;20197;-60
2022/01/27 08:39:43;;;;;;;18.77;12.77;;;;;;;1.33;100.00;101163.97;4999488;28;20276;-60
2022/01/27 08:42:09;;;;;;;28.40;14.73;;;;;;;1.22;100.00;101163.13;5012223;28;20230;-60
2022/01/27 08:44:36;;;;;;;20.80;13.60;;;;;;;1.28;100.00;101168.19;4992198;28;20183;-60
2022/01/27 08:47:02;;;;;;;27.93;15.00;;;;;;;1.17;100.00;101152.97;4995425;28;20209;-60
2022/01/27 08:49:28;;;;;;;24.27;15.43;;;;;;;1.38;100.00;101156.38;4999535;28;20174;-60
2022/01/27 08:51:55;;;;;;;24.37;16.17;;;;;;;1.40;100.00;101157.19;4989739;28;20561;-61
2022/01/27 08:54:20;;;;;;;24.57;14.80;;;;;;;1.48;100.00;101160.59;4991418;28;20272;-60
2022/01/27 08:56:46;;;;;;;21.87;15.33;;;;;;;1.50;100.00;101153.84;4990275;28;20768;-60
2022/01/27 08:59:12;;;;;;;23.50;14.97;;;;;;;1.40;100.00;101157.19;4990333;28;20207;-60
2022/01/27 09:01:40;;;;;;;26.57;15.00;;;;;;;1.34;100.00;101152.13;4984856;28;20302;-60
2022/01/27 09:04:07;;;;;;;22.27;14.03;;;;;;;1.36;100.00;101150.44;4979851;28;20186;-61
2022/01/27 09:06:32;;;;;;;20.73;14.20;;;;;;;1.38;100.00;101152.13;4990737;28;20652;-60
2022/01/27 09:08:58;;;;;;;22.90;15.03;;;;;;;1.43;100.00;101147.91;4998162;28;20187;-60
2022/01/27 09:11:24;;;;;;;20.93;13.87;;;;;;;1.53;100.00;101145.38;4998225;28;20229;-60
2022/01/27 09:13:52;;;;;;;23.50;14.70;;;;;;;1.60;100.00;101136.91;4998269;28;20179;-61
2022/01/27 09:16:18;;;;;;;23.77;15.47;;;;;;;1.45;100.00;101142.81;5001691;28;20207;-60
2022/01/27 09:18:43;;;;;;;24.23;16.37;;;;;;;1.67;100.00;101145.38;4993912;28;20592;-60
2022/01/27 09:21:15;;;;;;;22.80;15.23;;;;;;;1.76;100.00;101143.66;4991760;28;20277;-63
2022/01/27 09:23:41;;;;;;;24.23;14.27;;;;;;;1.67;100.00;101150.44;4992520;28;20180;-61
2022/01/27 09:26:10;;;;;;;24.33;14.50;;;;;;;1.62;100.00;101140.28;4993744;28;20743;-61
2022/01/27 09:28:35;;;;;;;23.37;15.27;;;;;;;1.62;100.00;101132.69;4993617;28;20179;-60
2022/01/27 09:31:01;;;;;;;20.67;14.40;;;;;;;1.47;100.00;101127.63;4988381;28;20226;-61
2022/01/27 09:33:27;;;;;;;26.70;14.27;;;;;;;1.60;100.00;101129.28;4992943;28;20191;-60
2022/01/27 09:35:53;;;;;;;20.13;13.63;;;;;;;1.72;100.00;101130.97;5015415;28;20238;-60
2022/01/27 09:38:18;;;;;;;22.33;13.47;;;;;;;1.94;100.00;101121.66;5013943;28;20199;-61
2022/01/27 09:40:47;;;;;;;22.73;13.90;;;;;;;2.01;100.00;101120.78;5011813;28;20784;-60
2022/01/27 09:43:13;;;;;;;23.13;13.80;;;;;;;1.85;100.00;101114.03;5026842;28;20179;-61
2022/01/27 09:45:39;;;;;;;21.60;13.53;;;;;;;1.97;100.00;101110.63;5016836;28;20203;-63
2022/01/27 09:48:14;;;;;;;17.63;12.50;;;;;;;2.12;100.00;101104.66;5013419;28;20178;-60
2022/01/27 09:53:14;;;;;;;20.60;12.60;;;;;;;2.17;98.67;101101.28;4993566;28;20211;-61
2022/01/27 09:55:40;;;;;;;18.00;12.87;;;;;;;2.16;98.06;101102.13;5002449;28;20685;-60
2022/01/27 09:58:06;;;;;;;17.57;12.17;;;;;;;2.03;98.74;101096.22;5000767;28;20190;-62
2022/01/27 10:00:32;;;;;;;20.03;13.23;;;;;;;2.14;98.85;101105.53;4986676;28;20247;-61
2022/01/27 10:03:13;;;;;;;15.10;11.30;;;;;;;2.21;98.15;101105.47;5003344;28;20256;-61
2022/01/27 10:05:40;;;;;;;15.03;11.90;;;;;;;2.46;97.08;101114.72;5007412;28;20688;-62
2022/01/27 10:08:18;;;;;;;14.73;10.43;;;;;;;2.35;96.01;101110.50;4993329;28;20552;-61
2022/01/27 10:10:48;;;;;;;15.87;11.80;;;;;;;2.27;96.45;101107.16;4987159;28;20255;-60
2022/01/27 10:13:37;;;;;;;16.63;11.87;;;;;;;2.30;96.80;101102.06;5011347;28;20168;-62
2022/01/27 10:16:03;;;;;;;14.90;10.87;;;;;;;2.39;96.23;101104.56;4991833;28;20221;-60
2022/01/27 10:18:35;;;;;;;15.50;11.23;;;;;;;2.45;95.93;101100.31;5006130;28;20238;-61
2022/01/27 10:21:05;;;;;;;15.57;10.77;;;;;;;2.51;95.85;101085.03;4990556;28;20245;-61
2022/01/27 10:23:33;;;;;;;15.13;11.10;;;;;;;2.51;94.80;101077.44;4999952;28;20196;-60
2022/01/27 10:26:13;;;;;;;18.33;12.27;;;;;;;2.61;94.71;101068.91;4994190;28;20227;-60
2022/01/27 10:31:19;;;;;;;19.33;12.47;;;;;;;2.98;93.16;101055.09;4986361;28;20230;-60
2022/01/27 10:33:59;;;;;;;17.40;11.43;;;;;;;3.05;92.29;101062.66;4988308;28;20230;-60
2022/01/27 10:36:29;;;;;;;15.27;10.77;;;;;;;3.03;91.09;101074.53;4990304;28;20680;-60
2022/01/27 10:38:59;;;;;;;14.20;10.77;;;;;;;2.98;91.81;101093.22;4975718;28;20527;-62
2022/01/27 10:41:27;;;;;;;14.93;10.87;;;;;;;2.85;92.01;101074.66;4973216;28;20812;-61
2022/01/27 10:44:11;;;;;;;13.87;10.60;;;;;;;2.82;92.16;101088.25;4978404;28;20193;-60
2022/01/27 10:46:42;;;;;;;13.90;10.73;;;;;;;2.98;91.89;101077.97;4980507;28;20282;-61
2022/01/27 10:49:19;;;;;;;15.87;10.73;;;;;;;2.97;91.00;101094.09;4974407;28;20196;-62
2022/01/27 10:51:51;;;;;;;17.23;11.00;;;;;;;2.99;90.91;101088.13;4964778;28;20269;-60
2022/01/27 10:54:33;;;;;;;13.77;10.53;;;;;;;3.04;90.07;101080.47;4981701;28;20330;-61
2022/01/27 10:57:02;;;;;;;15.87;11.07;;;;;;;2.99;90.46;101080.50;4989294;28;20203;-61
2022/01/27 10:59:28;;;;;;;13.07;10.23;;;;;;;3.09;90.84;101073.66;4980181;28;20726;-61
2022/01/27 11:01:55;;;;;;;16.50;11.40;;;;;;;3.22;89.92;101072.72;4958421;28;20264;-60
2022/01/27 11:04:31;;;;;;;15.57;11.13;;;;;;;3.31;89.57;101070.91;4988650;28;20187;-60
2022/01/27 11:06:59;;;;;;;14.50;10.33;;;;;;;3.48;88.70;101074.16;4982090;28;20635;-60
2022/01/27 11:09:25;;;;;;;14.17;10.27;;;;;;;3.44;88.20;101069.97;4973780;28;20179;-61
2022/01/27 11:11:53;;;;;;;14.90;10.43;;;;;;;3.28;88.27;101064.16;4963311;28;20388;-61
2022/01/27 11:14:19;;;;;;;13.03;10.70;;;;;;;3.29;88.98;101057.41;4987471;28;20190;-61
2022/01/27 11:16:48;;;;;;;15.37;10.23;;;;;;;3.23;89.68;101050.66;4981802;28;20343;-60
2022/01/27 11:22:41;;;;;;;16.57;11.20;;;;;;;3.29;89.87;101034.50;4957970;28;20224;-61
2022/01/27 11:27:26;;;;;;;13.87;10.50;;;;;;;3.32;89.24;101026.84;4986686;28;20188;-61
2022/01/27 11:30:03;;;;;;;16.83;11.43;;;;;;;3.31;89.91;101026.00;4971370;28;20192;-60
2022/01/27 11:32:34;;;;;;;16.07;10.87;;;;;;;3.39;89.08;101019.13;4999754;28;20217;-60
2022/01/27 11:34:59;;;;;;;14.23;10.87;;;;;;;3.34;88.88;101023.41;5012696;28;20193;-61
2022/01/27 11:37:34;;;;;;;14.93;11.17;;;;;;;3.46;88.44;101019.91;5018768;28;20562;-61
2022/01/27 11:40:08;;;;;;;17.17;11.23;;;;;;;3.30;89.12;101020.91;5005986;28;20296;-60
2022/01/27 11:42:41;;;;;;;16.07;11.20;;;;;;;3.21;90.25;101017.63;5007880;28;20232;-61
2022/01/27 11:45:27;;;;;;;15.53;11.13;;;;;;;3.34;90.08;101020.88;5012771;28;20182;-60
2022/01/27 11:47:58;;;;;;;15.07;11.37;;;;;;;3.16;90.30;101026.13;5017263;28;20186;-61
2022/01/27 11:50:36;;;;;;;16.70;11.43;;;;;;;3.38;90.30;101019.16;5012654;28;20227;-61
2022/01/27 11:53:12;;;;;;;16.47;12.57;;;;;;;3.38;89.38;101024.22;5012706;28;20180;-61
2022/01/27 11:55:44;;;;;;;14.07;10.90;;;;;;;3.15;90.06;101021.91;4995206;28;20904;-60
2022/01/27 11:58:23;;;;;;;16.33;11.83;;;;;;;3.12;90.75;101024.47;5018860;28;20581;-61
2022/01/27 12:01:02;;;;;;;15.03;11.40;;;;;;;3.09;91.41;101011.78;5003598;28;20562;-60
2022/01/27 12:03:27;;;;;;;20.27;11.83;;;;;;;3.04;91.67;101007.59;5021420;28;20174;-59
2022/01/27 12:06:19;;;;;;;16.57;11.00;;;;;;;3.24;91.80;101006.56;5030326;28;20197;-60
2022/01/27 12:08:45;;;;;;;18.57;11.83;;;;;;;3.19;91.95;100998.97;5026214;28;20642;-61
2022/01/27 12:11:52;;;;;;;15.07;11.10;;;;;;;3.27;92.12;100993.81;5009319;28;20229;-60